Time;durP1;ratioP1;P1;durP2;ratioP2;P2;SDS_P1;SDS_P2;PMS_P1;PMS_P2;Temp;Humidity;BMP_temperature;BMP_pressure;BME280_temperature;BME280_humidity;BME280_pressure;Samples;Min_cycle;Max_cycle;Signal;HPM_P1;HPM_P2
2022/01/04 00:00:35;;;;;;;2.43;1.70;;;;;;;11.13;61.62;95921.88;5092225;28;20220;-73
2022/01/04 00:03:01;;;;;;;2.33;2.10;;;;;;;11.08;61.40;95926.03;5091691;28;20237;-72
2022/01/04 00:05:28;;;;;;;2.93;1.83;;;;;;;11.03;59.94;95925.66;5092610;28;20221;-71
2022/01/04 00:07:54;;;;;;;1.30;1.20;;;;;;;11.05;59.49;95918.41;5093283;28;20209;-72
2022/01/04 00:10:23;;;;;;;2.03;1.80;;;;;;;11.01;60.01;95912.63;5093089;28;20201;-72
2022/01/04 00:15:36;;;;;;;2.23;1.47;;;;;;;10.97;61.63;95901.53;5093680;28;20228;-73
2022/01/04 00:18:02;;;;;;;2.00;1.30;;;;;;;10.97;60.35;95896.25;5093385;28;20202;-74
2022/01/04 00:20:29;;;;;;;1.33;1.23;;;;;;;10.96;59.03;95889.28;5093729;28;20641;-73
2022/01/04 00:22:55;;;;;;;1.50;1.13;;;;;;;11.05;58.45;95891.97;5094790;28;20684;-73
2022/01/04 00:25:22;;;;;;;2.43;1.50;;;;;;;11.06;58.18;95883.84;5094467;28;20220;-73
2022/01/04 00:27:48;;;;;;;2.10;1.60;;;;;;;11.10;57.83;95877.22;5105866;28;20274;-70
2022/01/04 00:30:16;;;;;;;2.13;1.83;;;;;;;11.11;58.77;95870.97;5096952;28;20573;-72
2022/01/04 00:32:43;;;;;;;2.20;1.63;;;;;;;11.12;58.71;95877.09;5095340;28;20189;-68
2022/01/04 00:35:10;;;;;;;2.20;1.40;;;;;;;11.11;59.55;95872.78;5104965;28;20201;-71
2022/01/04 00:37:36;;;;;;;2.30;1.57;;;;;;;11.12;58.79;95867.31;5109881;28;20198;-72
2022/01/04 00:40:04;;;;;;;1.87;1.47;;;;;;;11.14;58.29;95862.69;5101892;28;20204;-73
2022/01/04 00:42:31;;;;;;;4.30;1.47;;;;;;;11.16;58.60;95852.75;5105244;28;20272;-72
2022/01/04 00:44:57;;;;;;;1.80;1.47;;;;;;;11.18;59.16;95839.38;5103274;28;20601;-72
2022/01/04 00:47:37;;;;;;;1.80;1.67;;;;;;;11.15;59.93;95834.41;5094601;28;20233;-73
2022/01/04 00:50:04;;;;;;;1.90;1.43;;;;;;;11.12;60.09;95835.56;5093700;28;20201;-72
2022/01/04 00:52:30;;;;;;;2.70;1.33;;;;;;;11.07;59.66;95831.75;5091662;28;20200;-70
2022/01/04 00:54:57;;;;;;;2.13;1.80;;;;;;;11.11;60.08;95849.78;5092507;28;20247;-69
2022/01/04 00:57:23;;;;;;;2.53;1.20;;;;;;;11.08;60.58;95844.84;5092487;28;20197;-71
2022/01/04 00:59:50;;;;;;;2.00;1.63;;;;;;;11.09;60.13;95830.59;5091848;28;20214;-73
2022/01/04 01:02:16;;;;;;;3.07;1.50;;;;;;;11.13;59.45;95821.34;5092434;28;20209;-72
2022/01/04 01:04:44;;;;;;;2.43;1.50;;;;;;;11.16;59.74;95820.19;5091712;28;20245;-71
2022/01/04 01:07:10;;;;;;;2.00;1.60;;;;;;;11.17;58.91;95819.19;5090678;28;20202;-76
2022/01/04 01:09:46;;;;;;;1.60;1.50;;;;;;;11.14;60.66;95830.09;5092601;28;20240;-77
2022/01/04 01:12:13;;;;;;;1.90;1.47;;;;;;;11.12;61.27;95826.81;5092564;28;20285;-75
2022/01/04 01:14:39;;;;;;;2.47;1.73;;;;;;;11.15;60.35;95829.94;5092612;28;20197;-75
2022/01/04 01:17:06;;;;;;;2.03;1.67;;;;;;;11.11;59.61;95811.91;5091468;28;20205;-76
2022/01/04 01:19:33;;;;;;;1.67;1.33;;;;;;;11.11;59.37;95807.47;5092052;28;20601;-74
2022/01/04 01:22:01;;;;;;;1.60;1.50;;;;;;;11.14;60.18;95806.28;5092203;28;20230;-75
2022/01/04 01:24:28;;;;;;;2.50;2.00;;;;;;;11.19;59.56;95796.03;5092147;28;20260;-74
2022/01/04 01:26:54;;;;;;;3.50;1.63;;;;;;;11.22;59.52;95793.06;5092361;28;20223;-76
2022/01/04 01:29:21;;;;;;;2.07;1.70;;;;;;;11.22;58.98;95787.75;5074988;28;20217;-74
2022/01/04 01:31:47;;;;;;;3.87;1.70;;;;;;;11.27;58.86;95796.00;5091724;28;20555;-73
2022/01/04 01:34:14;;;;;;;2.83;1.93;;;;;;;11.30;58.63;95777.19;5091724;28;20205;-75
2022/01/04 01:36:40;;;;;;;2.43;1.60;;;;;;;11.31;58.47;95776.16;5092161;28;20202;-73
2022/01/04 01:39:08;;;;;;;1.87;1.40;;;;;;;11.30;59.42;95771.88;5092812;28;20198;-75
2022/01/04 01:41:35;;;;;;;1.80;1.70;;;;;;;11.33;59.00;95764.44;5092348;28;20229;-73
2022/01/04 01:44:01;;;;;;;2.47;1.40;;;;;;;11.28;60.28;95760.63;5091330;28;20229;-76
2022/01/04 01:46:27;;;;;;;1.67;1.57;;;;;;;11.35;59.09;95745.72;5091998;28;20234;-74
2022/01/04 01:48:54;;;;;;;2.07;1.60;;;;;;;11.29;58.94;95746.41;5091575;28;20217;-74
2022/01/04 01:51:21;;;;;;;2.07;1.87;;;;;;;11.18;60.49;95738.81;5091772;28;20210;-74
2022/01/04 01:53:47;;;;;;;1.67;1.43;;;;;;;11.22;60.52;95735.66;5091729;28;20213;-75
2022/01/04 01:56:15;;;;;;;2.70;1.33;;;;;;;11.19;60.21;95719.31;5092123;28;20221;-75
2022/01/04 01:58:42;;;;;;;1.90;1.40;;;;;;;11.20;59.43;95697.13;5091471;28;20213;-73
2022/01/04 02:01:09;;;;;;;3.53;1.80;;;;;;;11.46;58.03;95697.69;5091444;28;20206;-75
2022/01/04 02:03:36;;;;;;;1.63;1.13;;;;;;;11.47;57.83;95694.06;5091133;28;20676;-75
2022/01/04 02:06:03;;;;;;;2.27;1.93;;;;;;;11.46;58.17;95690.59;5091922;28;20305;-76
2022/01/04 02:08:29;;;;;;;2.70;1.80;;;;;;;11.47;58.66;95686.13;5091024;28;20217;-73
2022/01/04 02:10:58;;;;;;;1.50;1.40;;;;;;;11.64;57.45;95678.94;5092213;28;20226;-74
2022/01/04 02:13:26;;;;;;;1.77;1.67;;;;;;;11.63;57.80;95675.44;5091658;28;20209;-73
2022/01/04 02:15:52;;;;;;;1.53;1.03;;;;;;;11.59;58.33;95671.50;5091215;28;20648;-74
2022/01/04 02:18:19;;;;;;;2.70;1.40;;;;;;;11.48;57.81;95663.94;5091794;28;20202;-73
2022/01/04 02:20:47;;;;;;;3.60;1.80;;;;;;;11.53;57.80;95669.53;5094949;28;20193;-72
2022/01/04 02:23:13;;;;;;;1.60;1.50;;;;;;;11.48;58.54;95662.09;5094052;28;20206;-75
2022/01/04 02:25:40;;;;;;;1.60;1.50;;;;;;;11.56;58.14;95663.91;5095004;28;20769;-73
2022/01/04 02:28:07;;;;;;;1.30;1.20;;;;;;;11.56;57.89;95655.13;5095137;28;20202;-76
2022/01/04 02:30:34;;;;;;;1.80;1.47;;;;;;;11.59;57.27;95652.13;5095310;28;20533;-73
2022/01/04 02:33:00;;;;;;;1.60;1.40;;;;;;;11.55;57.67;95649.00;5095627;28;20206;-75
2022/01/04 02:35:30;;;;;;;2.07;1.40;;;;;;;11.56;58.20;95650.66;5100894;28;20220;-74
2022/01/04 02:37:59;;;;;;;2.53;1.70;;;;;;;11.71;57.06;95656.91;5120345;28;20190;-73
2022/01/04 02:40:26;;;;;;;1.73;1.63;;;;;;;11.80;57.13;95637.31;5119917;28;20178;-73
2022/01/04 02:42:52;;;;;;;2.13;1.80;;;;;;;11.75;57.20;95637.03;5102676;28;20201;-74
2022/01/04 02:45:19;;;;;;;2.03;1.40;;;;;;;11.71;57.17;95641.03;5094381;28;20229;-74
2022/01/04 02:47:46;;;;;;;1.67;1.57;;;;;;;11.67;58.44;95623.78;5094525;28;20309;-74
2022/01/04 02:50:13;;;;;;;1.83;1.73;;;;;;;11.72;57.32;95623.31;5095104;28;20205;-73
2022/01/04 02:52:39;;;;;;;1.70;1.57;;;;;;;11.71;57.40;95619.84;5094775;28;20217;-75
2022/01/04 02:55:09;;;;;;;3.00;1.50;;;;;;;11.70;57.13;95614.66;5099239;28;20193;-73
2022/01/04 02:57:36;;;;;;;1.70;1.60;;;;;;;11.71;57.38;95606.59;5101054;28;20209;-73
2022/01/04 03:00:07;;;;;;;2.10;1.90;;;;;;;11.64;58.23;95587.06;5098301;28;20213;-73
2022/01/04 03:02:36;;;;;;;1.53;1.43;;;;;;;11.62;58.13;95597.00;5095706;28;20198;-75
2022/01/04 03:05:03;;;;;;;2.17;1.80;;;;;;;11.60;58.75;95580.47;5094082;28;20665;-72
2022/01/04 03:07:30;;;;;;;1.57;1.47;;;;;;;11.60;58.07;95574.34;5094451;28;20205;-74
2022/01/04 03:09:56;;;;;;;2.63;1.60;;;;;;;11.63;58.31;95597.81;5094597;28;20212;-74
2022/01/04 03:12:24;;;;;;;1.50;1.40;;;;;;;11.80;57.57;95581.69;5094644;28;20633;-74
2022/01/04 03:14:50;;;;;;;1.40;1.30;;;;;;;11.73;57.80;95583.38;5094431;28;20296;-72
2022/01/04 03:17:17;;;;;;;1.70;1.57;;;;;;;11.87;57.69;95566.75;5094777;28;20198;-72
2022/01/04 03:19:43;;;;;;;1.97;1.60;;;;;;;11.81;57.72;95578.06;5093843;28;20202;-73
2022/01/04 03:22:10;;;;;;;3.73;1.70;;;;;;;11.86;57.42;95567.75;5094281;28;20209;-73
2022/01/04 03:24:36;;;;;;;1.47;1.37;;;;;;;11.80;58.30;95551.72;5094688;28;20569;-71
2022/01/04 03:27:03;;;;;;;2.10;1.67;;;;;;;11.77;58.60;95550.25;5094259;28;20198;-74
2022/01/04 03:29:31;;;;;;;1.50;1.40;;;;;;;11.74;59.66;95561.22;5093723;28;20217;-75
2022/01/04 03:31:58;;;;;;;2.47;1.70;;;;;;;11.80;58.86;95534.00;5093856;28;20209;-72
2022/01/04 03:34:24;;;;;;;2.37;1.57;;;;;;;11.76;58.42;95540.66;5093977;28;20530;-76
2022/01/04 03:36:51;;;;;;;2.50;1.87;;;;;;;11.76;58.97;95532.72;5093460;28;20209;-72
2022/01/04 03:39:18;;;;;;;3.10;1.97;;;;;;;11.77;58.99;95531.72;5094115;28;20194;-75
2022/01/04 03:41:46;;;;;;;1.83;1.70;;;;;;;11.76;58.95;95519.47;5094294;28;20217;-73
2022/01/04 03:44:19;;;;;;;2.03;1.80;;;;;;;11.69;59.44;95525.66;5094130;28;20230;-76
2022/01/04 03:46:48;;;;;;;1.60;1.50;;;;;;;11.71;59.44;95528.97;5093316;28;20286;-73
2022/01/04 03:49:14;;;;;;;1.37;1.27;;;;;;;11.79;59.98;95535.03;5094182;28;20217;-73
2022/01/04 03:51:41;;;;;;;1.53;1.40;;;;;;;11.62;60.93;95535.31;5094312;28;20225;-77
2022/01/04 03:54:07;;;;;;;2.53;1.47;;;;;;;11.60;61.36;95522.22;5095012;28;20217;-73
2022/01/04 03:56:33;;;;;;;3.27;1.80;;;;;;;11.79;61.57;95532.38;5093287;28;20198;-75
2022/01/04 03:59:00;;;;;;;1.57;1.43;;;;;;;11.64;62.01;95512.94;5093832;28;20209;-71
2022/01/04 04:01:27;;;;;;;1.63;1.53;;;;;;;11.64;63.00;95517.41;5093410;28;20212;-72
2022/01/04 04:03:55;;;;;;;1.60;1.50;;;;;;;11.64;63.80;95523.53;5093213;28;20214;-71
2022/01/04 04:06:21;;;;;;;2.83;1.80;;;;;;;11.64;64.37;95531.47;5093612;28;20206;-74
2022/01/04 04:08:48;;;;;;;2.17;1.57;;;;;;;11.62;65.02;95514.13;5093422;28;20194;-71
2022/01/04 04:11:15;;;;;;;2.47;1.80;;;;;;;11.52;66.02;95497.63;5092851;28;20216;-72
2022/01/04 04:13:41;;;;;;;1.60;1.50;;;;;;;11.47;66.08;95490.22;5093620;28;20201;-72
2022/01/04 04:16:08;;;;;;;2.10;1.70;;;;;;;11.32;67.56;95500.75;5093353;28;20201;-72
2022/01/04 04:18:34;;;;;;;1.60;1.50;;;;;;;11.26;67.83;95503.28;5093170;28;20204;-73
2022/01/04 04:21:02;;;;;;;2.43;1.83;;;;;;;11.24;68.60;95505.25;5093592;28;20206;-72
2022/01/04 04:23:28;;;;;;;1.30;1.20;;;;;;;11.16;68.79;95497.38;5093111;28;20197;-73
2022/01/04 04:25:55;;;;;;;1.87;1.77;;;;;;;11.10;69.17;95487.47;5092756;28;20244;-74
2022/01/04 04:28:21;;;;;;;1.60;1.50;;;;;;;11.15;68.89;95495.72;5093128;28;20216;-70
2022/01/04 04:30:48;;;;;;;1.73;1.60;;;;;;;11.18;69.28;95490.91;5092834;28;20205;-73
2022/01/04 04:33:14;;;;;;;2.17;1.33;;;;;;;11.23;69.19;95496.47;5093074;28;20312;-72
2022/01/04 04:35:41;;;;;;;1.77;1.27;;;;;;;11.26;69.29;95497.97;5092976;28;20194;-74
2022/01/04 04:38:08;;;;;;;1.47;1.37;;;;;;;11.14;70.30;95499.38;5074279;28;20605;-75
2022/01/04 04:40:35;;;;;;;1.43;1.33;;;;;;;11.13;70.85;95487.13;5092073;28;20536;-72
2022/01/04 04:43:02;;;;;;;1.93;1.40;;;;;;;11.07;71.44;95493.13;5092087;28;20213;-72
2022/01/04 04:45:29;;;;;;;1.57;1.33;;;;;;;11.10;71.93;95498.06;5092415;28;20233;-73
2022/01/04 04:47:55;;;;;;;1.70;1.50;;;;;;;11.01;72.43;95488.53;5097888;28;20268;-72
2022/01/04 04:50:22;;;;;;;2.10;1.20;;;;;;;10.95;72.73;95482.94;5113229;28;20189;-72
2022/01/04 04:52:53;;;;;;;2.57;1.80;;;;;;;10.99;72.93;95481.59;5109992;28;20205;-73
2022/01/04 04:55:20;;;;;;;1.67;1.57;;;;;;;11.03;73.31;95486.53;5111777;28;20253;-72
2022/01/04 04:57:47;;;;;;;1.30;1.20;;;;;;;10.95;73.94;95487.38;5106777;28;20197;-72
2022/01/04 05:00:14;;;;;;;4.97;1.70;;;;;;;11.06;73.74;95494.94;5099325;28;20259;-70
2022/01/04 05:02:41;;;;;;;1.93;1.83;;;;;;;10.96;74.27;95492.53;5099430;28;20209;-72
2022/01/04 05:05:08;;;;;;;1.77;1.67;;;;;;;10.84;74.65;95483.31;5095350;28;20213;-72
2022/01/04 05:07:35;;;;;;;1.60;1.50;;;;;;;10.96;74.47;95494.34;5096492;28;20193;-73
2022/01/04 05:10:02;;;;;;;1.53;1.20;;;;;;;10.86;74.70;95472.56;5095973;28;20209;-71
2022/01/04 05:12:30;;;;;;;1.50;1.40;;;;;;;10.78;75.67;95470.78;5101799;28;20201;-73
2022/01/04 05:14:56;;;;;;;1.43;1.33;;;;;;;10.78;75.82;95469.97;5100695;28;20193;-72
2022/01/04 05:17:23;;;;;;;1.30;1.30;;;;;;;10.61;78.53;95466.56;5106363;28;20205;-72
2022/01/04 05:19:49;;;;;;;1.43;1.33;;;;;;;10.64;77.52;95475.97;5104004;28;20201;-72
2022/01/04 05:22:16;;;;;;;1.60;1.50;;;;;;;10.76;77.16;95480.72;5101200;28;20225;-71
2022/01/04 05:24:42;;;;;;;2.53;1.67;;;;;;;10.66;77.66;95480.13;5093396;28;20240;-71
2022/01/04 05:27:09;;;;;;;1.57;1.47;;;;;;;10.62;78.74;95485.91;5093165;28;20547;-72
2022/01/04 05:29:37;;;;;;;1.50;1.40;;;;;;;10.62;79.08;95480.63;5092858;28;20213;-73
2022/01/04 05:32:03;;;;;;;3.43;1.43;;;;;;;10.58;79.87;95482.78;5092565;28;20198;-72
2022/01/04 05:34:30;;;;;;;1.50;1.40;;;;;;;10.55;80.34;95482.31;5092237;28;20207;-70
2022/01/04 05:36:56;;;;;;;2.00;1.60;;;;;;;10.43;82.02;95468.63;5091955;28;20263;-72
2022/01/04 05:39:23;;;;;;;2.33;1.60;;;;;;;10.45;82.20;95467.44;5093374;28;20198;-72
2022/01/04 05:41:49;;;;;;;2.07;1.53;;;;;;;10.46;82.46;95460.34;5091570;28;20596;-73
2022/01/04 05:44:16;;;;;;;2.03;1.70;;;;;;;10.33;84.66;95441.56;5092073;28;20200;-72
2022/01/04 05:46:44;;;;;;;2.03;1.80;;;;;;;10.39;83.57;95441.72;5091774;28;20550;-72
2022/01/04 05:49:10;;;;;;;1.67;1.57;;;;;;;10.39;83.89;95441.72;5092359;28;20208;-72
2022/01/04 05:51:37;;;;;;;1.43;1.33;;;;;;;10.49;83.84;95441.50;5091602;28;20610;-73
2022/01/04 05:54:03;;;;;;;1.67;1.47;;;;;;;10.56;83.19;95426.59;5094477;28;20664;-74
2022/01/04 05:56:29;;;;;;;1.70;1.60;;;;;;;10.54;84.06;95425.97;5096100;28;20641;-73
2022/01/04 05:58:56;;;;;;;3.17;1.50;;;;;;;10.40;84.58;95422.22;5097289;28;20225;-70
2022/01/04 06:01:22;;;;;;;1.50;1.30;;;;;;;10.32;86.03;95411.69;5095777;28;20618;-71
2022/01/04 06:03:51;;;;;;;1.53;1.43;;;;;;;10.31;85.68;95404.75;5095379;28;20221;-72
2022/01/04 06:06:17;;;;;;;2.33;1.80;;;;;;;10.41;85.41;95402.75;5096367;28;20328;-71
2022/01/04 06:08:44;;;;;;;1.87;1.40;;;;;;;10.35;85.75;95397.31;5097191;28;20209;-72
2022/01/04 06:11:29;;;;;;;2.73;1.30;;;;;;;10.31;85.65;95396.00;5096258;28;20254;-73
2022/01/04 06:16:39;;;;;;;1.43;1.30;;;;;;;10.42;85.35;95395.63;5103205;28;20208;-71
2022/01/04 06:19:07;;;;;;;1.50;1.40;;;;;;;10.43;85.79;95398.09;5112813;28;20278;-73
2022/01/04 06:21:33;;;;;;;2.07;1.17;;;;;;;10.43;86.17;95400.75;5113683;28;20209;-72
2022/01/04 06:24:00;;;;;;;1.60;1.50;;;;;;;10.42;87.13;95388.50;5114347;28;20206;-71
2022/01/04 06:26:28;;;;;;;1.50;1.40;;;;;;;10.45;86.60;95387.38;5112537;28;20217;-72
2022/01/04 06:28:54;;;;;;;1.97;1.13;;;;;;;10.43;86.49;95373.50;5096313;28;20613;-75
2022/01/04 06:31:21;;;;;;;1.57;1.40;;;;;;;10.45;86.55;95376.81;5095919;28;20220;-72
2022/01/04 06:33:47;;;;;;;1.00;1.00;;;;;;;10.52;85.36;95380.41;5095176;28;20224;-72
2022/01/04 06:36:15;;;;;;;2.67;1.40;;;;;;;10.45;85.75;95371.50;5095311;28;20194;-71
2022/01/04 06:38:41;;;;;;;1.33;1.23;;;;;;;10.47;85.24;95372.16;5095296;28;20240;-72
2022/01/04 06:41:08;;;;;;;2.73;1.50;;;;;;;10.48;85.27;95365.88;5094173;28;20209;-71
2022/01/04 06:43:34;;;;;;;1.43;1.20;;;;;;;10.54;84.74;95353.78;5095416;28;20216;-73
2022/01/04 06:46:01;;;;;;;1.60;1.50;;;;;;;10.54;84.67;95364.34;5094295;28;20229;-72
2022/01/04 06:48:27;;;;;;;2.17;1.63;;;;;;;10.63;83.32;95358.03;5093621;28;20295;-73
2022/01/04 06:50:54;;;;;;;1.43;1.33;;;;;;;10.63;82.93;95342.97;5094612;28;20216;-72
2022/01/04 06:53:21;;;;;;;1.60;1.50;;;;;;;10.65;83.31;95340.16;5094682;28;20228;-71
2022/01/04 06:55:50;;;;;;;2.00;1.70;;;;;;;10.64;84.15;95335.88;5093982;28;20626;-71
2022/01/04 06:58:16;;;;;;;1.97;1.40;;;;;;;10.62;84.59;95340.53;5093553;28;21982;-72
2022/01/04 07:00:43;;;;;;;2.03;1.40;;;;;;;10.61;84.11;95329.13;5093397;28;20209;-73
2022/01/04 07:03:09;;;;;;;2.73;1.60;;;;;;;10.61;84.35;95329.13;5094988;28;20582;-72
2022/01/04 07:05:36;;;;;;;1.70;1.53;;;;;;;10.60;83.98;95326.63;5100478;28;20233;-76
2022/01/04 07:08:03;;;;;;;1.60;1.50;;;;;;;10.57;84.02;95322.53;5111791;28;20178;-76
2022/01/04 07:10:30;;;;;;;2.07;1.97;;;;;;;10.57;84.19;95319.88;5116053;28;20192;-75
2022/01/04 07:12:57;;;;;;;1.60;1.50;;;;;;;10.54;83.93;95312.31;5102212;28;20205;-76
2022/01/04 07:15:23;;;;;;;1.50;1.40;;;;;;;10.49;83.97;95310.19;5095555;28;20213;-74
2022/01/04 07:17:50;;;;;;;1.60;1.50;;;;;;;10.52;83.73;95314.31;5097146;28;20219;-71
2022/01/04 07:20:16;;;;;;;1.77;1.50;;;;;;;10.50;83.63;95316.28;5094892;28;20710;-72
2022/01/04 07:22:43;;;;;;;1.70;1.60;;;;;;;10.48;83.72;95316.50;5094009;28;20201;-74
2022/01/04 07:25:10;;;;;;;1.60;1.50;;;;;;;10.48;84.23;95307.72;5094463;28;20228;-73
2022/01/04 07:27:38;;;;;;;1.90;1.33;;;;;;;10.47;84.46;95300.78;5096719;28;20202;-74
2022/01/04 07:30:06;;;;;;;1.70;1.60;;;;;;;10.48;84.22;95305.91;5096134;28;20312;-75
2022/01/04 07:32:33;;;;;;;1.40;1.30;;;;;;;10.56;83.62;95294.44;5095659;28;20198;-72
2022/01/04 07:34:59;;;;;;;2.10;2.00;;;;;;;10.59;83.33;95304.69;5094501;28;20198;-73
2022/01/04 07:37:26;;;;;;;1.33;1.27;;;;;;;10.58;83.65;95312.78;5093818;28;20633;-72
2022/01/04 07:39:52;;;;;;;1.73;1.57;;;;;;;10.53;84.42;95308.00;5094014;28;20206;-72
2022/01/04 07:42:19;;;;;;;1.90;1.70;;;;;;;10.53;83.31;95304.53;5094140;28;20201;-73
2022/01/04 07:44:47;;;;;;;1.53;1.43;;;;;;;10.48;83.97;95313.03;5093543;28;20240;-71
2022/01/04 07:47:13;;;;;;;1.70;1.60;;;;;;;10.49;83.51;95299.63;5093109;28;20248;-72
2022/01/04 07:49:40;;;;;;;1.90;1.80;;;;;;;10.41;84.39;95288.28;5093535;28;20214;-73
2022/01/04 07:52:06;;;;;;;2.67;2.47;;;;;;;10.39;84.75;95282.34;5094028;28;20562;-72
2022/01/04 07:54:33;;;;;;;1.47;1.37;;;;;;;10.42;83.98;95274.06;5093953;28;20763;-73
2022/01/04 07:56:59;;;;;;;1.53;1.40;;;;;;;10.38;84.15;95284.16;5093841;28;20537;-72
2022/01/04 07:59:29;;;;;;;1.87;1.53;;;;;;;10.42;84.45;95272.25;5093993;28;20213;-72
2022/01/04 08:01:57;;;;;;;1.63;1.50;;;;;;;10.41;84.12;95264.50;5093979;28;20298;-74
2022/01/04 08:04:24;;;;;;;2.17;1.70;;;;;;;10.45;84.26;95265.81;5093278;28;20296;-72
2022/01/04 08:06:51;;;;;;;1.43;1.33;;;;;;;10.43;83.77;95254.56;5092696;28;20791;-73
2022/01/04 08:09:17;;;;;;;1.70;1.60;;;;;;;10.51;83.80;95274.84;5093239;28;20206;-71
2022/01/04 08:11:44;;;;;;;2.20;1.40;;;;;;;10.54;83.50;95277.13;5092861;28;20712;-72
2022/01/04 08:14:10;;;;;;;1.50;1.40;;;;;;;10.62;83.58;95274.44;5093629;28;20221;-73
2022/01/04 08:16:37;;;;;;;1.20;1.20;;;;;;;10.65;83.45;95282.00;5092864;28;20198;-71
2022/01/04 08:19:04;;;;;;;1.93;1.83;;;;;;;10.71;82.85;95268.06;5093584;28;20302;-71
2022/01/04 08:21:31;;;;;;;1.50;1.40;;;;;;;10.78;82.57;95258.44;5094080;28;20213;-72
2022/01/04 08:23:57;;;;;;;2.03;1.30;;;;;;;10.79;82.42;95260.91;5092815;28;20197;-71
2022/01/04 08:26:24;;;;;;;1.17;1.17;;;;;;;10.83;82.61;95254.28;5093484;28;20226;-72
2022/01/04 08:28:51;;;;;;;1.50;1.30;;;;;;;10.87;82.19;95244.16;5092942;28;20297;-72
2022/01/04 08:31:17;;;;;;;1.50;1.40;;;;;;;11.02;81.17;95257.41;5093354;28;20202;-70
2022/01/04 08:33:44;;;;;;;3.00;1.60;;;;;;;11.04;80.99;95252.75;5094007;28;20212;-71
2022/01/04 08:36:12;;;;;;;1.60;1.50;;;;;;;11.13;80.77;95254.31;5092857;28;20194;-72
2022/01/04 08:38:39;;;;;;;1.67;1.57;;;;;;;11.22;79.77;95263.81;5092619;28;20548;-71
2022/01/04 08:41:06;;;;;;;1.33;1.23;;;;;;;11.23;80.35;95254.91;5092601;28;20213;-71
2022/01/04 08:43:32;;;;;;;1.57;1.30;;;;;;;11.28;80.11;95253.34;5092588;28;20213;-73
2022/01/04 08:45:59;;;;;;;2.30;1.23;;;;;;;11.32;79.86;95259.09;5091846;28;20224;-73
2022/01/04 08:48:25;;;;;;;1.60;1.50;;;;;;;11.31;79.81;95252.16;5051115;28;20660;-74
2022/01/04 08:50:52;;;;;;;1.80;1.40;;;;;;;11.37;78.99;95252.25;5052473;28;20210;-74
2022/01/04 08:53:19;;;;;;;1.23;1.10;;;;;;;11.39;79.21;95238.84;5052671;28;20210;-73
2022/01/04 08:55:47;;;;;;;1.70;1.27;;;;;;;11.39;78.62;95238.84;5052392;28;20207;-73
2022/01/04 08:58:14;;;;;;;1.63;1.53;;;;;;;11.50;78.49;95243.69;5051880;28;20222;-70
2022/01/04 09:00:40;;;;;;;1.47;1.37;;;;;;;11.53;77.88;95240.66;5052201;28;20210;-72
2022/01/04 09:03:07;;;;;;;1.80;1.70;;;;;;;11.51;78.16;95237.38;5050421;28;20199;-71
2022/01/04 09:05:33;;;;;;;1.30;1.20;;;;;;;11.49;78.14;95240.22;5051826;28;20226;-72
2022/01/04 09:08:00;;;;;;;2.60;1.50;;;;;;;11.58;77.48;95246.25;5052370;28;20210;-72
2022/01/04 09:10:28;;;;;;;1.60;1.50;;;;;;;11.58;77.51;95237.47;5053181;28;20256;-71
2022/01/04 09:13:00;;;;;;;1.63;1.50;;;;;;;11.64;77.24;95226.97;5051819;28;20386;-72
2022/01/04 09:15:33;;;;;;;1.33;1.23;;;;;;;11.57;77.65;95226.06;5051654;28;20204;-71
2022/01/04 09:20:47;;;;;;;2.33;1.20;;;;;;;11.96;75.86;95218.66;5061266;28;20206;-71
2022/01/04 09:23:15;;;;;;;2.07;1.20;;;;;;;12.22;74.65;95219.94;5074414;28;20187;-70
2022/01/04 09:25:43;;;;;;;1.80;1.70;;;;;;;12.37;74.35;95220.69;5076221;28;20241;-71
2022/01/04 09:28:10;;;;;;;2.50;1.50;;;;;;;12.45;73.35;95224.06;5074485;28;20304;-71
2022/01/04 09:30:36;;;;;;;1.17;1.10;;;;;;;12.72;72.43;95219.00;5080206;28;20183;-71
2022/01/04 09:33:05;;;;;;;1.47;1.37;;;;;;;12.81;71.79;95221.34;5084896;28;20735;-72
2022/01/04 09:35:32;;;;;;;1.80;1.70;;;;;;;12.91;71.66;95227.13;5071788;28;20214;-70
2022/01/04 09:37:59;;;;;;;1.60;1.50;;;;;;;12.94;70.69;95221.44;5057150;28;20203;-73
2022/01/04 09:40:26;;;;;;;1.90;1.37;;;;;;;12.95;71.11;95233.69;5055320;28;20214;-73
2022/01/04 09:42:54;;;;;;;1.60;1.13;;;;;;;13.20;70.77;95226.16;5056502;28;20215;-71
2022/01/04 09:45:20;;;;;;;1.70;1.60;;;;;;;13.59;69.55;95228.25;5054638;28;20294;-72
2022/01/04 09:47:47;;;;;;;1.20;1.20;;;;;;;13.95;67.08;95220.88;5085706;28;20252;-72
2022/01/04 09:50:13;;;;;;;1.40;1.30;;;;;;;14.01;66.59;95215.75;5096197;28;20202;-73
2022/01/04 09:52:44;;;;;;;1.40;1.30;;;;;;;13.91;66.92;95209.00;5095694;28;20197;-73
2022/01/04 09:55:13;;;;;;;2.20;1.57;;;;;;;13.77;67.56;95196.66;5095102;28;20519;-72
2022/01/04 09:57:39;;;;;;;1.40;1.30;;;;;;;13.67;67.17;95195.41;5096033;28;20233;-72
2022/01/04 10:00:09;;;;;;;3.67;1.53;;;;;;;13.80;67.27;95214.88;5096084;28;20202;-72
2022/01/04 10:02:36;;;;;;;1.77;1.67;;;;;;;13.72;67.33;95211.53;5095939;28;20292;-73
2022/01/04 10:05:13;;;;;;;1.70;1.60;;;;;;;13.62;67.64;95217.22;5095347;28;20668;-73
2022/01/04 10:07:40;;;;;;;2.30;1.93;;;;;;;13.56;68.70;95223.34;5094795;28;20653;-72
2022/01/04 10:10:10;;;;;;;2.43;1.63;;;;;;;13.48;68.13;95215.50;5094510;28;20263;-73
2022/01/04 10:12:49;;;;;;;2.33;1.30;;;;;;;13.33;68.82;95204.19;5094706;28;20206;-72
2022/01/04 10:15:31;;;;;;;1.50;1.40;;;;;;;13.29;69.53;95192.31;5095126;28;20213;-71
2022/01/04 10:17:58;;;;;;;1.27;1.17;;;;;;;13.26;70.47;95182.91;5095958;28;20523;-72
2022/01/04 10:20:25;;;;;;;2.17;1.40;;;;;;;13.26;68.78;95182.91;5095976;28;20212;-71
2022/01/04 10:22:51;;;;;;;1.63;1.40;;;;;;;13.32;68.53;95171.50;5094857;28;20318;-72
2022/01/04 10:25:19;;;;;;;1.67;1.53;;;;;;;13.33;68.33;95172.31;5095317;28;20198;-72
2022/01/04 10:27:47;;;;;;;1.53;1.40;;;;;;;13.34;68.80;95152.72;5095577;28;20221;-73
2022/01/04 10:30:23;;;;;;;1.60;1.50;;;;;;;13.26;68.84;95140.44;5094331;28;20574;-71
2022/01/04 10:32:56;;;;;;;1.53;1.47;;;;;;;13.42;67.78;95155.22;5094961;28;20212;-72
2022/01/04 10:35:25;;;;;;;1.47;1.37;;;;;;;13.52;67.20;95145.06;5094713;28;20201;-73
2022/01/04 10:37:52;;;;;;;1.37;1.27;;;;;;;13.65;66.51;95147.78;5094454;28;20842;-72
2022/01/04 10:40:19;;;;;;;3.83;1.63;;;;;;;13.69;67.14;95133.06;5094026;28;20209;-72
2022/01/04 10:42:45;;;;;;;1.40;1.30;;;;;;;13.88;65.95;95137.66;5095079;28;20229;-72
2022/01/04 10:45:27;;;;;;;2.27;1.33;;;;;;;13.98;65.82;95133.78;5095224;28;20198;-71
2022/01/04 10:47:55;;;;;;;1.40;1.30;;;;;;;13.99;65.51;95120.31;5094391;28;20338;-72
2022/01/04 10:50:32;;;;;;;2.27;1.90;;;;;;;14.07;65.40;95106.81;5094767;28;20202;-71
2022/01/04 10:53:00;;;;;;;2.30;1.57;;;;;;;14.23;65.47;95100.28;5095872;28;20193;-71
2022/01/04 10:55:31;;;;;;;1.88;1.70;;;;;;;14.68;63.40;95088.88;5096731;28;20224;-70
2022/01/04 10:57:58;;;;;;;2.10;2.00;;;;;;;15.16;60.74;95081.41;5096330;28;20210;-71
2022/01/04 11:00:25;;;;;;;3.40;3.05;;;;;;;15.69;59.77;95082.09;5094656;28;20218;-72
2022/01/04 11:02:52;;;;;;;6.13;5.43;;;;;;;15.84;58.64;95077.28;5094566;28;20201;-69
2022/01/04 11:05:22;;;;;;;4.70;4.28;;;;;;;15.96;58.89;95072.09;5096430;28;20202;-71
2022/01/04 11:07:59;;;;;;;2.70;2.50;;;;;;;15.85;57.96;95068.25;5095099;28;20233;-71
2022/01/04 11:10:25;;;;;;;2.97;2.42;;;;;;;15.75;58.14;95067.09;5093129;28;20640;-73
2022/01/04 11:12:52;;;;;;;2.30;2.20;;;;;;;15.73;57.84;95056.63;5094714;28;20237;-71
2022/01/04 11:15:20;;;;;;;2.10;1.92;;;;;;;15.63;57.90;95072.25;5094652;28;20267;-75
2022/01/04 11:17:47;;;;;;;2.20;1.42;;;;;;;15.60;57.69;95054.03;5094113;28;20205;-75
2022/01/04 11:20:14;;;;;;;2.08;1.40;;;;;;;15.56;57.72;95047.50;5095378;28;20205;-72
2022/01/04 11:22:45;;;;;;;1.90;1.80;;;;;;;15.53;57.63;95053.25;5095394;28;20206;-73
2022/01/04 11:25:12;;;;;;;1.50;1.40;;;;;;;15.43;58.67;95056.34;5096037;28;20205;-75
2022/01/04 11:27:40;;;;;;;1.60;1.15;;;;;;;15.48;58.92;95046.91;5098425;28;20225;-74
2022/01/04 11:30:12;;;;;;;1.38;1.27;;;;;;;15.47;58.86;95034.59;5097170;28;20214;-73
2022/01/04 11:32:41;;;;;;;1.48;1.38;;;;;;;15.45;57.98;95022.31;5105663;28;20197;-74
2022/01/04 11:35:12;;;;;;;1.08;1.00;;;;;;;15.47;57.60;95038.09;5107231;28;20201;-74
2022/01/04 11:37:41;;;;;;;1.70;1.10;;;;;;;15.34;57.26;95025.63;5106660;28;20487;-73
2022/01/04 11:40:26;;;;;;;1.08;1.08;;;;;;;15.33;58.69;95028.53;5106795;28;20193;-71
2022/01/04 11:42:52;;;;;;;1.98;1.50;;;;;;;15.28;57.32;95025.66;5109918;28;20197;-71